Kranzburg, South Dakota
Current Conditions -  °F | °C
As of 12:53 AM on Monday 24 Nov 2014 (Local Time) from KATY Reporting Station
Overcast Overcast  
Wind Chill: -2°   Ceiling: 2600
Heat Index: 16°   Visibility: 10mi
Dew Point: 10°   Wind: 22mph
Humidity: 77%   Direction: 330°NNW
Pressure: 29.52"   Gusts: 31mph
Location:  44.89°N, 96.92°W
Report Text: KATY 240653Z AUTO 33019G27KT 10SM SCT016 OVC026 M09/M12 A2952 RMK AO2 PK WND 33027/0648 SLP019 T10891122
Loading
Personal Weather Stations






























Interactive Weather Map New forecast layout! Learn more

10-Day Weather Forecast

Advertisements
Track Severe Weather on mobile